sensor_id;sensor_type;location;lat;lon;timestamp;temperature;humidity
796;DHT22;381;48.770;9.188;2024-01-16T00:03:02;2.40;90.40
796;DHT22;381;48.770;9.188;2024-01-16T00:08:06;2.40;90.60
796;DHT22;381;48.770;9.188;2024-01-16T00:13:09;2.40;90.60
796;DHT22;381;48.770;9.188;2024-01-16T00:18:11;2.40;90.30
796;DHT22;381;48.770;9.188;2024-01-16T00:23:15;2.30;90.50
796;DHT22;381;48.770;9.188;2024-01-16T00:28:17;2.30;90.60
796;DHT22;381;48.770;9.188;2024-01-16T00:33:20;2.30;91.00
796;DHT22;381;48.770;9.188;2024-01-16T00:38:24;2.20;90.70
796;DHT22;381;48.770;9.188;2024-01-16T00:43:27;2.20;91.10
796;DHT22;381;48.770;9.188;2024-01-16T00:48:29;2.20;91.10
796;DHT22;381;48.770;9.188;2024-01-16T00:53:33;2.20;91.30
796;DHT22;381;48.770;9.188;2024-01-16T00:58:36;2.30;91.20
796;DHT22;381;48.770;9.188;2024-01-16T01:03:39;2.30;91.20
796;DHT22;381;48.770;9.188;2024-01-16T01:08:42;2.30;91.10
796;DHT22;381;48.770;9.188;2024-01-16T01:13:45;2.20;91.10
796;DHT22;381;48.770;9.188;2024-01-16T01:18:47;2.30;91.40
796;DHT22;381;48.770;9.188;2024-01-16T01:23:51;2.30;91.60
796;DHT22;381;48.770;9.188;2024-01-16T01:28:53;2.40;91.30
796;DHT22;381;48.770;9.188;2024-01-16T01:33:55;2.50;91.30
796;DHT22;381;48.770;9.188;2024-01-16T01:38:59;2.50;91.00
796;DHT22;381;48.770;9.188;2024-01-16T01:44:01;2.50;91.10
796;DHT22;381;48.770;9.188;2024-01-16T01:49:04;2.40;91.30
796;DHT22;381;48.770;9.188;2024-01-16T01:54:08;2.40;91.30
796;DHT22;381;48.770;9.188;2024-01-16T01:59:11;2.40;91.40
796;DHT22;381;48.770;9.188;2024-01-16T02:04:16;2.40;91.40
796;DHT22;381;48.770;9.188;2024-01-16T02:09:20;2.40;91.00
796;DHT22;381;48.770;9.188;2024-01-16T02:14:22;2.40;91.10
796;DHT22;381;48.770;9.188;2024-01-16T02:19:25;2.30;90.90
796;DHT22;381;48.770;9.188;2024-01-16T02:24:29;2.20;90.90
796;DHT22;381;48.770;9.188;2024-01-16T02:29:31;2.20;91.00
796;DHT22;381;48.770;9.188;2024-01-16T02:34:33;2.10;90.90
796;DHT22;381;48.770;9.188;2024-01-16T02:39:37;2.00;90.70
796;DHT22;381;48.770;9.188;2024-01-16T02:44:40;2.10;90.70
796;DHT22;381;48.770;9.188;2024-01-16T02:49:42;2.00;90.80
796;DHT22;381;48.770;9.188;2024-01-16T02:54:46;2.00;90.90
796;DHT22;381;48.770;9.188;2024-01-16T02:59:48;1.90;90.70
796;DHT22;381;48.770;9.188;2024-01-16T03:04:51;1.80;90.50
796;DHT22;381;48.770;9.188;2024-01-16T03:09:54;1.70;90.50
796;DHT22;381;48.770;9.188;2024-01-16T03:14:57;1.70;90.70
796;DHT22;381;48.770;9.188;2024-01-16T03:19:59;1.70;90.80
796;DHT22;381;48.770;9.188;2024-01-16T03:25:04;1.60;90.70
796;DHT22;381;48.770;9.188;2024-01-16T03:30:07;1.70;91.00
796;DHT22;381;48.770;9.188;2024-01-16T03:35:10;1.70;90.80
796;DHT22;381;48.770;9.188;2024-01-16T03:40:14;1.60;90.40
796;DHT22;381;48.770;9.188;2024-01-16T03:45:16;1.60;90.40
796;DHT22;381;48.770;9.188;2024-01-16T03:50:19;1.50;90.70
796;DHT22;381;48.770;9.188;2024-01-16T03:55:22;1.50;90.80
796;DHT22;381;48.770;9.188;2024-01-16T04:00:25;1.50;90.90
796;DHT22;381;48.770;9.188;2024-01-16T04:05:27;1.50;90.40
796;DHT22;381;48.770;9.188;2024-01-16T04:10:31;1.40;90.20
796;DHT22;381;48.770;9.188;2024-01-16T04:15:35;1.40;90.60
796;DHT22;381;48.770;9.188;2024-01-16T04:20:39;1.40;90.40
796;DHT22;381;48.770;9.188;2024-01-16T04:25:43;1.40;90.20
796;DHT22;381;48.770;9.188;2024-01-16T04:30:45;1.30;90.40
796;DHT22;381;48.770;9.188;2024-01-16T04:35:47;1.40;90.50
796;DHT22;381;48.770;9.188;2024-01-16T04:40:51;1.30;90.50
796;DHT22;381;48.770;9.188;2024-01-16T04:45:53;1.30;90.60
796;DHT22;381;48.770;9.188;2024-01-16T04:50:56;1.30;91.00
796;DHT22;381;48.770;9.188;2024-01-16T04:56:00;1.30;91.10
796;DHT22;381;48.770;9.188;2024-01-16T05:01:02;1.30;90.70
796;DHT22;381;48.770;9.188;2024-01-16T05:06:05;1.40;90.60
796;DHT22;381;48.770;9.188;2024-01-16T05:11:15;1.30;90.60
796;DHT22;381;48.770;9.188;2024-01-16T05:16:17;1.30;90.70
796;DHT22;381;48.770;9.188;2024-01-16T05:21:20;1.30;90.60
796;DHT22;381;48.770;9.188;2024-01-16T05:26:23;1.30;90.60
796;DHT22;381;48.770;9.188;2024-01-16T05:31:26;1.30;90.60
796;DHT22;381;48.770;9.188;2024-01-16T05:36:28;1.30;90.50
796;DHT22;381;48.770;9.188;2024-01-16T05:41:33;1.30;90.40
796;DHT22;381;48.770;9.188;2024-01-16T05:46:36;1.30;89.80
796;DHT22;381;48.770;9.188;2024-01-16T05:51:38;1.20;88.70
796;DHT22;381;48.770;9.188;2024-01-16T05:56:42;1.10;88.20
796;DHT22;381;48.770;9.188;2024-01-16T06:01:44;0.90;88.60
796;DHT22;381;48.770;9.188;2024-01-16T06:06:46;0.70;88.90
796;DHT22;381;48.770;9.188;2024-01-16T06:11:50;0.70;90.20
796;DHT22;381;48.770;9.188;2024-01-16T06:16:52;0.70;89.80
796;DHT22;381;48.770;9.188;2024-01-16T06:21:55;0.70;89.90
796;DHT22;381;48.770;9.188;2024-01-16T06:26:58;0.80;90.10
796;DHT22;381;48.770;9.188;2024-01-16T06:32:01;0.80;89.60
796;DHT22;381;48.770;9.188;2024-01-16T06:37:03;0.90;88.80
796;DHT22;381;48.770;9.188;2024-01-16T06:42:07;0.90;89.00
796;DHT22;381;48.770;9.188;2024-01-16T06:47:10;0.90;88.50
796;DHT22;381;48.770;9.188;2024-01-16T06:52:12;1.00;87.70
796;DHT22;381;48.770;9.188;2024-01-16T06:57:16;1.00;88.30
796;DHT22;381;48.770;9.188;2024-01-16T07:02:18;1.10;88.40
796;DHT22;381;48.770;9.188;2024-01-16T07:07:20;1.10;87.90
796;DHT22;381;48.770;9.188;2024-01-16T07:12:24;1.10;86.50
796;DHT22;381;48.770;9.188;2024-01-16T07:17:26;1.10;86.90
796;DHT22;381;48.770;9.188;2024-01-16T07:22:29;1.10;86.30
796;DHT22;381;48.770;9.188;2024-01-16T07:27:33;1.10;86.10
796;DHT22;381;48.770;9.188;2024-01-16T07:32:35;1.10;86.40
796;DHT22;381;48.770;9.188;2024-01-16T07:37:37;1.10;86.20
796;DHT22;381;48.770;9.188;2024-01-16T07:42:41;1.10;85.70
796;DHT22;381;48.770;9.188;2024-01-16T07:47:43;1.20;85.70
796;DHT22;381;48.770;9.188;2024-01-16T07:52:46;1.20;86.30
796;DHT22;381;48.770;9.188;2024-01-16T07:57:50;1.30;87.00
796;DHT22;381;48.770;9.188;2024-01-16T08:02:52;1.40;86.20
796;DHT22;381;48.770;9.188;2024-01-16T08:07:54;1.50;85.90
796;DHT22;381;48.770;9.188;2024-01-16T08:12:58;1.60;85.20
796;DHT22;381;48.770;9.188;2024-01-16T08:18:00;1.60;84.50
796;DHT22;381;48.770;9.188;2024-01-16T08:23:03;1.70;84.40
796;DHT22;381;48.770;9.188;2024-01-16T08:28:07;1.80;84.30
796;DHT22;381;48.770;9.188;2024-01-16T08:33:10;1.90;84.60
796;DHT22;381;48.770;9.188;2024-01-16T08:38:12;2.00;84.90
796;DHT22;381;48.770;9.188;2024-01-16T08:43:16;2.10;85.10
796;DHT22;381;48.770;9.188;2024-01-16T08:48:19;2.20;85.10
796;DHT22;381;48.770;9.188;2024-01-16T08:53:21;2.30;84.80
796;DHT22;381;48.770;9.188;2024-01-16T08:58:25;2.40;84.90
796;DHT22;381;48.770;9.188;2024-01-16T09:03:28;2.40;84.10
796;DHT22;381;48.770;9.188;2024-01-16T09:08:32;2.50;83.30
796;DHT22;381;48.770;9.188;2024-01-16T09:13:36;2.50;83.50
796;DHT22;381;48.770;9.188;2024-01-16T09:18:38;2.60;83.50
796;DHT22;381;48.770;9.188;2024-01-16T09:23:41;2.70;83.40
796;DHT22;381;48.770;9.188;2024-01-16T09:28:44;2.70;82.90
796;DHT22;381;48.770;9.188;2024-01-16T09:33:47;2.70;82.40
796;DHT22;381;48.770;9.188;2024-01-16T09:38:50;2.80;83.40
796;DHT22;381;48.770;9.188;2024-01-16T09:43:53;2.90;81.70
796;DHT22;381;48.770;9.188;2024-01-16T09:48:56;2.90;81.50
796;DHT22;381;48.770;9.188;2024-01-16T09:53:59;2.90;80.80
796;DHT22;381;48.770;9.188;2024-01-16T09:59:05;2.90;80.50
796;DHT22;381;48.770;9.188;2024-01-16T10:04:10;2.90;81.10
796;DHT22;381;48.770;9.188;2024-01-16T10:09:12;3.00;81.80
796;DHT22;381;48.770;9.188;2024-01-16T10:14:17;3.10;82.20
796;DHT22;381;48.770;9.188;2024-01-16T10:19:20;3.20;82.20
796;DHT22;381;48.770;9.188;2024-01-16T10:24:22;3.40;80.90
796;DHT22;381;48.770;9.188;2024-01-16T10:29:26;3.40;81.40
796;DHT22;381;48.770;9.188;2024-01-16T10:34:29;3.60;80.40
796;DHT22;381;48.770;9.188;2024-01-16T10:39:31;3.60;80.50
796;DHT22;381;48.770;9.188;2024-01-16T10:44:35;3.70;80.50
796;DHT22;381;48.770;9.188;2024-01-16T10:49:39;3.70;81.40
796;DHT22;381;48.770;9.188;2024-01-16T10:54:42;3.80;80.70
796;DHT22;381;48.770;9.188;2024-01-16T11:00:00;3.90;81.40
796;DHT22;381;48.770;9.188;2024-01-16T11:05:06;3.90;81.30
796;DHT22;381;48.770;9.188;2024-01-16T11:10:09;3.80;79.70
796;DHT22;381;48.770;9.188;2024-01-16T11:15:14;3.70;78.80
796;DHT22;381;48.770;9.188;2024-01-16T11:20:16;3.60;78.60
796;DHT22;381;48.770;9.188;2024-01-16T11:25:20;3.50;79.60
796;DHT22;381;48.770;9.188;2024-01-16T11:30:30;3.50;81.60
796;DHT22;381;48.770;9.188;2024-01-16T11:35:34;3.50;81.60
796;DHT22;381;48.770;9.188;2024-01-16T11:40:37;3.50;81.60
796;DHT22;381;48.770;9.188;2024-01-16T11:45:51;3.40;82.00
796;DHT22;381;48.770;9.188;2024-01-16T11:50:56;3.40;82.30
796;DHT22;381;48.770;9.188;2024-01-16T11:56:11;3.40;80.20
796;DHT22;381;48.770;9.188;2024-01-16T12:01:17;3.40;79.30
796;DHT22;381;48.770;9.188;2024-01-16T12:06:21;3.40;80.00
796;DHT22;381;48.770;9.188;2024-01-16T12:11:24;3.40;79.80
796;DHT22;381;48.770;9.188;2024-01-16T12:16:28;3.40;79.50
796;DHT22;381;48.770;9.188;2024-01-16T12:21:33;3.50;79.40
796;DHT22;381;48.770;9.188;2024-01-16T12:26:35;3.40;78.10
796;DHT22;381;48.770;9.188;2024-01-16T12:31:39;3.40;78.50
796;DHT22;381;48.770;9.188;2024-01-16T12:36:41;3.40;76.90
796;DHT22;381;48.770;9.188;2024-01-16T12:41:45;3.40;77.80
796;DHT22;381;48.770;9.188;2024-01-16T12:46:55;3.40;78.80
796;DHT22;381;48.770;9.188;2024-01-16T12:52:19;3.40;78.70
796;DHT22;381;48.770;9.188;2024-01-16T12:57:22;3.40;78.30
796;DHT22;381;48.770;9.188;2024-01-16T13:02:26;3.50;78.30
796;DHT22;381;48.770;9.188;2024-01-16T13:07:28;3.50;78.10
796;DHT22;381;48.770;9.188;2024-01-16T13:12:32;3.50;79.50
796;DHT22;381;48.770;9.188;2024-01-16T13:17:36;3.50;80.30
796;DHT22;381;48.770;9.188;2024-01-16T13:22:38;3.50;78.60
796;DHT22;381;48.770;9.188;2024-01-16T13:27:41;3.50;78.00
796;DHT22;381;48.770;9.188;2024-01-16T13:32:44;3.50;77.60
796;DHT22;381;48.770;9.188;2024-01-16T13:37:47;3.50;75.80
796;DHT22;381;48.770;9.188;2024-01-16T13:42:53;3.60;76.10
796;DHT22;381;48.770;9.188;2024-01-16T13:47:57;3.50;77.70
796;DHT22;381;48.770;9.188;2024-01-16T13:52:59;3.60;76.40
796;DHT22;381;48.770;9.188;2024-01-16T13:58:03;3.60;75.40
796;DHT22;381;48.770;9.188;2024-01-16T14:03:06;3.60;74.30
796;DHT22;381;48.770;9.188;2024-01-16T14:08:09;3.50;74.60
796;DHT22;381;48.770;9.188;2024-01-16T14:13:13;3.50;75.50
796;DHT22;381;48.770;9.188;2024-01-16T14:18:17;3.50;76.20
796;DHT22;381;48.770;9.188;2024-01-16T14:23:20;3.50;76.00
796;DHT22;381;48.770;9.188;2024-01-16T14:28:22;3.50;77.50
796;DHT22;381;48.770;9.188;2024-01-16T14:33:28;3.50;76.60
796;DHT22;381;48.770;9.188;2024-01-16T14:38:30;3.50;76.50
796;DHT22;381;48.770;9.188;2024-01-16T14:43:33;3.40;76.10
796;DHT22;381;48.770;9.188;2024-01-16T14:48:37;3.30;77.20
796;DHT22;381;48.770;9.188;2024-01-16T14:53:40;3.30;78.10
796;DHT22;381;48.770;9.188;2024-01-16T14:58:42;3.20;78.80
796;DHT22;381;48.770;9.188;2024-01-16T15:03:46;3.10;79.90
796;DHT22;381;48.770;9.188;2024-01-16T15:08:50;3.00;79.50
796;DHT22;381;48.770;9.188;2024-01-16T15:13:52;2.80;79.90
796;DHT22;381;48.770;9.188;2024-01-16T15:18:59;2.70;80.30
796;DHT22;381;48.770;9.188;2024-01-16T15:24:02;2.60;79.70
796;DHT22;381;48.770;9.188;2024-01-16T15:29:04;2.60;79.80
796;DHT22;381;48.770;9.188;2024-01-16T15:34:08;2.50;80.40
796;DHT22;381;48.770;9.188;2024-01-16T15:39:11;2.40;80.70
796;DHT22;381;48.770;9.188;2024-01-16T15:44:16;2.40;80.20
796;DHT22;381;48.770;9.188;2024-01-16T15:49:20;2.30;80.70
796;DHT22;381;48.770;9.188;2024-01-16T15:54:22;2.20;81.10
796;DHT22;381;48.770;9.188;2024-01-16T15:59:25;2.10;81.20
796;DHT22;381;48.770;9.188;2024-01-16T16:04:29;2.10;81.40
796;DHT22;381;48.770;9.188;2024-01-16T16:09:31;2.00;81.20
796;DHT22;381;48.770;9.188;2024-01-16T16:14:35;1.90;81.40
796;DHT22;381;48.770;9.188;2024-01-16T16:19:42;1.80;81.70
796;DHT22;381;48.770;9.188;2024-01-16T16:24:44;1.70;82.50
796;DHT22;381;48.770;9.188;2024-01-16T16:29:46;1.60;82.60
796;DHT22;381;48.770;9.188;2024-01-16T16:34:50;1.60;82.90
796;DHT22;381;48.770;9.188;2024-01-16T16:39:52;1.50;83.70
796;DHT22;381;48.770;9.188;2024-01-16T16:44:55;1.50;82.70
796;DHT22;381;48.770;9.188;2024-01-16T16:49:58;1.30;83.10
796;DHT22;381;48.770;9.188;2024-01-16T16:55:01;1.30;83.50
796;DHT22;381;48.770;9.188;2024-01-16T17:00:06;1.20;83.60
796;DHT22;381;48.770;9.188;2024-01-16T17:05:11;1.30;83.40
796;DHT22;381;48.770;9.188;2024-01-16T17:10:13;1.20;83.60
796;DHT22;381;48.770;9.188;2024-01-16T17:15:16;1.10;83.70
796;DHT22;381;48.770;9.188;2024-01-16T17:20:20;1.10;83.80
796;DHT22;381;48.770;9.188;2024-01-16T17:25:23;1.10;83.30
796;DHT22;381;48.770;9.188;2024-01-16T17:30:25;1.00;83.30
796;DHT22;381;48.770;9.188;2024-01-16T17:35:29;1.00;83.40
796;DHT22;381;48.770;9.188;2024-01-16T17:40:31;0.90;83.50
796;DHT22;381;48.770;9.188;2024-01-16T17:45:34;0.90;84.20
796;DHT22;381;48.770;9.188;2024-01-16T17:50:39;0.90;84.40
796;DHT22;381;48.770;9.188;2024-01-16T17:55:41;0.90;84.40
796;DHT22;381;48.770;9.188;2024-01-16T18:00:43;0.90;84.20
796;DHT22;381;48.770;9.188;2024-01-16T18:05:47;0.80;84.40
796;DHT22;381;48.770;9.188;2024-01-16T18:10:50;0.80;85.30
796;DHT22;381;48.770;9.188;2024-01-16T18:15:54;0.80;85.40
796;DHT22;381;48.770;9.188;2024-01-16T18:20:59;0.80;85.00
796;DHT22;381;48.770;9.188;2024-01-16T18:26:02;0.80;84.80
796;DHT22;381;48.770;9.188;2024-01-16T18:31:05;0.80;84.80
796;DHT22;381;48.770;9.188;2024-01-16T18:36:11;0.80;84.70
796;DHT22;381;48.770;9.188;2024-01-16T18:41:13;0.70;84.50
796;DHT22;381;48.770;9.188;2024-01-16T18:46:16;0.70;84.80
796;DHT22;381;48.770;9.188;2024-01-16T18:51:21;0.60;85.00
796;DHT22;381;48.770;9.188;2024-01-16T18:56:23;0.60;85.90
796;DHT22;381;48.770;9.188;2024-01-16T19:01:26;0.50;85.20
796;DHT22;381;48.770;9.188;2024-01-16T19:06:31;0.40;85.70
796;DHT22;381;48.770;9.188;2024-01-16T19:11:33;0.40;85.90
796;DHT22;381;48.770;9.188;2024-01-16T19:16:36;0.30;86.00
796;DHT22;381;48.770;9.188;2024-01-16T19:21:40;0.30;86.50
796;DHT22;381;48.770;9.188;2024-01-16T19:26:43;0.30;86.00
796;DHT22;381;48.770;9.188;2024-01-16T19:31:46;0.30;85.90
796;DHT22;381;48.770;9.188;2024-01-16T19:36:50;0.20;86.10
796;DHT22;381;48.770;9.188;2024-01-16T19:41:53;0.20;86.40
796;DHT22;381;48.770;9.188;2024-01-16T19:46:55;0.20;86.70
796;DHT22;381;48.770;9.188;2024-01-16T19:51:59;0.10;86.60
796;DHT22;381;48.770;9.188;2024-01-16T19:57:02;0.00;86.60
796;DHT22;381;48.770;9.188;2024-01-16T20:02:04;0.00;86.80
796;DHT22;381;48.770;9.188;2024-01-16T20:07:09;-0.10;86.50
796;DHT22;381;48.770;9.188;2024-01-16T20:12:11;-0.10;86.60
796;DHT22;381;48.770;9.188;2024-01-16T20:17:13;-0.10;87.50
796;DHT22;381;48.770;9.188;2024-01-16T20:22:18;-0.20;87.00
796;DHT22;381;48.770;9.188;2024-01-16T20:27:20;-0.10;86.50
796;DHT22;381;48.770;9.188;2024-01-16T20:32:22;-0.10;86.60
796;DHT22;381;48.770;9.188;2024-01-16T20:37:27;-0.10;87.00
796;DHT22;381;48.770;9.188;2024-01-16T20:42:30;-0.20;87.10
796;DHT22;381;48.770;9.188;2024-01-16T20:47:32;-0.20;87.20
796;DHT22;381;48.770;9.188;2024-01-16T20:52:36;-0.20;87.30
796;DHT22;381;48.770;9.188;2024-01-16T20:57:39;-0.30;87.40
796;DHT22;381;48.770;9.188;2024-01-16T21:02:42;-0.20;87.80
796;DHT22;381;48.770;9.188;2024-01-16T21:07:46;-0.20;87.10
796;DHT22;381;48.770;9.188;2024-01-16T21:12:49;-0.20;87.10
796;DHT22;381;48.770;9.188;2024-01-16T21:17:51;-0.30;87.50
796;DHT22;381;48.770;9.188;2024-01-16T21:22:55;-0.30;87.70
796;DHT22;381;48.770;9.188;2024-01-16T21:27:58;-0.30;88.10
796;DHT22;381;48.770;9.188;2024-01-16T21:33:00;-0.30;88.80
796;DHT22;381;48.770;9.188;2024-01-16T21:38:04;-0.30;87.70
796;DHT22;381;48.770;9.188;2024-01-16T21:43:07;-0.30;87.50
796;DHT22;381;48.770;9.188;2024-01-16T21:48:10;-0.40;87.80
796;DHT22;381;48.770;9.188;2024-01-16T21:53:14;-0.40;88.30
796;DHT22;381;48.770;9.188;2024-01-16T21:58:16;-0.40;88.10
796;DHT22;381;48.770;9.188;2024-01-16T22:03:20;-0.40;88.40
796;DHT22;381;48.770;9.188;2024-01-16T22:08:24;-0.40;88.80
796;DHT22;381;48.770;9.188;2024-01-16T22:13:26;-0.40;89.00
796;DHT22;381;48.770;9.188;2024-01-16T22:18:29;-0.50;89.10
796;DHT22;381;48.770;9.188;2024-01-16T22:23:33;-0.40;89.20
796;DHT22;381;48.770;9.188;2024-01-16T22:28:35;-0.40;89.30
796;DHT22;381;48.770;9.188;2024-01-16T22:33:38;-0.40;89.40
796;DHT22;381;48.770;9.188;2024-01-16T22:38:43;-0.40;89.00
796;DHT22;381;48.770;9.188;2024-01-16T22:43:47;-0.40;89.40
796;DHT22;381;48.770;9.188;2024-01-16T22:48:49;-0.30;89.20
796;DHT22;381;48.770;9.188;2024-01-16T22:53:53;-0.30;89.10
796;DHT22;381;48.770;9.188;2024-01-16T22:58:56;-0.30;89.60
796;DHT22;381;48.770;9.188;2024-01-16T23:04:00;-0.20;89.60
796;DHT22;381;48.770;9.188;2024-01-16T23:09:04;-0.10;89.80
796;DHT22;381;48.770;9.188;2024-01-16T23:14:07;-0.10;89.10
796;DHT22;381;48.770;9.188;2024-01-16T23:19:09;-0.10;89.20
796;DHT22;381;48.770;9.188;2024-01-16T23:24:14;0.00;89.50
796;DHT22;381;48.770;9.188;2024-01-16T23:29:17;0.00;89.60
796;DHT22;381;48.770;9.188;2024-01-16T23:34:19;0.10;89.80
796;DHT22;381;48.770;9.188;2024-01-16T23:39:23;0.20;89.70
796;DHT22;381;48.770;9.188;2024-01-16T23:44:26;0.20;89.60
796;DHT22;381;48.770;9.188;2024-01-16T23:49:30;0.20;89.20
796;DHT22;381;48.770;9.188;2024-01-16T23:54:37;0.20;89.50
796;DHT22;381;48.770;9.188;2024-01-16T23:59:40;0.20;89.40
